createdAt,value
2016-05-22T00:00:05.138Z,177702.8
2016-05-22T00:00:15.375Z,172887.6
2016-05-22T00:00:25.329Z,172887.6
2016-05-22T00:00:35.329Z,168266
2016-05-22T00:00:45.329Z,168266
2016-05-22T00:00:55.344Z,164030.3
2016-05-22T00:01:05.407Z,159987.8
2016-05-22T00:01:15.346Z,159987.8
2016-05-22T00:01:25.362Z,177702.8
2016-05-22T00:01:35.409Z,187913.7
2016-05-22T00:01:45.393Z,187913.7
2016-05-22T00:01:55.440Z,187913.7
2016-05-22T00:02:05.393Z,193502.6
2016-05-22T00:02:15.412Z,193502.6
2016-05-22T00:02:25.412Z,193502.6
2016-05-22T00:02:35.412Z,199285.3
2016-05-22T00:02:45.427Z,193502.6
2016-05-22T00:02:55.443Z,187913.7
2016-05-22T00:03:05.427Z,182518.8
2016-05-22T00:03:15.446Z,177702.8
2016-05-22T00:03:25.462Z,172887.6
2016-05-22T00:03:35.462Z,164030.3
2016-05-22T00:03:45.462Z,159987.8
2016-05-22T00:03:55.477Z,156138.5
2016-05-22T00:04:05.524Z,159987.8
2016-05-22T00:04:15.604Z,168266
2016-05-22T00:04:25.510Z,168266
2016-05-22T00:04:35.495Z,164030.3
2016-05-22T00:04:45.526Z,159987.8
2016-05-22T00:04:55.370Z,159987.8
2016-05-22T00:05:05.510Z,159987.8
2016-05-22T00:05:15.529Z,159987.8
2016-05-22T00:05:25.560Z,164030.3
2016-05-22T00:05:35.545Z,177702.8
2016-05-22T00:05:45.545Z,182518.8
2016-05-22T00:05:55.560Z,182518.8
2016-05-22T00:06:05.576Z,177702.8
2016-05-22T00:06:15.657Z,168266
2016-05-22T00:06:25.579Z,164030.3
2016-05-22T00:06:35.579Z,164030.3
2016-05-22T00:06:45.610Z,96762.5
2016-05-22T00:06:55.641Z,156138.5
2016-05-22T00:07:05.610Z,152289.8
2016-05-22T00:07:15.628Z,148826.6
2016-05-22T00:07:25.706Z,148826.6
2016-05-22T00:07:35.675Z,148826.6
2016-05-22T00:07:45.487Z,145363.9
2016-05-22T00:07:55.643Z,145363.9
2016-05-22T00:08:05.690Z,145363.9
2016-05-22T00:08:15.663Z,142094.2
2016-05-22T00:08:25.538Z,145363.9
2016-05-22T00:08:35.507Z,168266
2016-05-22T00:08:45.679Z,182518.8
2016-05-22T00:08:55.694Z,182518.8
2016-05-22T00:09:05.694Z,187913.7
2016-05-22T00:09:15.759Z,177702.8
2016-05-22T00:09:25.712Z,177702.8
2016-05-22T00:09:35.712Z,193502.6
2016-05-22T00:09:45.743Z,205454.7
2016-05-22T00:09:55.712Z,199285.3
2016-05-22T00:10:05.728Z,193502.6
2016-05-22T00:10:15.730Z,193502.6
2016-05-22T00:10:25.620Z,199285.3
2016-05-22T00:10:35.761Z,193502.6
2016-05-22T00:10:45.776Z,193502.6
2016-05-22T00:10:55.870Z,193502.6
2016-05-22T00:11:05.808Z,199285.3
2016-05-22T00:11:16.109Z,205454.7
2016-05-22T00:11:25.843Z,205454.7
2016-05-22T00:11:35.827Z,193502.6
2016-05-22T00:11:45.859Z,187913.7
2016-05-22T00:11:55.859Z,187913.7
2016-05-22T00:12:05.827Z,193502.6
2016-05-22T00:12:15.923Z,193502.6
2016-05-22T00:12:25.704Z,193502.6
2016-05-22T00:12:35.907Z,199285.3
2016-05-22T00:12:45.720Z,205454.7
2016-05-22T00:12:56.017Z,205454.7
2016-05-22T00:13:05.736Z,205454.7
2016-05-22T00:13:16.206Z,212204.2
2016-05-22T00:13:25.909Z,212204.2
2016-05-22T00:13:35.722Z,205454.7
2016-05-22T00:13:45.925Z,205454.7
2016-05-22T00:13:55.941Z,205454.7
2016-05-22T00:14:05.909Z,205454.7
2016-05-22T00:14:16.429Z,199285.3
2016-05-22T00:14:26.179Z,110579.4
2016-05-22T00:14:36.101Z,205454.7
2016-05-22T00:14:45.960Z,205454.7
2016-05-22T00:14:56.007Z,205454.7
2016-05-22T00:15:05.976Z,205454.7
2016-05-22T00:15:15.962Z,205454.7
2016-05-22T00:15:25.962Z,205454.7
2016-05-22T00:15:35.978Z,205454.7
2016-05-22T00:15:45.978Z,212204.2
2016-05-22T00:15:55.853Z,226672.1
2016-05-22T00:16:05.994Z,226672.1
2016-05-22T00:16:16.028Z,226672.1
2016-05-22T00:16:25.997Z,226672.1
2016-05-22T00:16:36.012Z,226672.1
2016-05-22T00:16:46.043Z,226672.1
2016-05-22T00:16:56.028Z,219148
2016-05-22T00:17:06.028Z,219148
2016-05-22T00:17:16.045Z,212204.2
2016-05-22T00:17:26.045Z,205454.7
2016-05-22T00:17:35.905Z,205454.7
2016-05-22T00:17:45.905Z,212204.2
2016-05-22T00:17:56.092Z,219148
2016-05-22T00:18:06.092Z,219148
2016-05-22T00:18:16.080Z,112499.4
2016-05-22T00:18:26.095Z,205454.7
2016-05-22T00:18:36.127Z,205454.7
2016-05-22T00:18:46.111Z,199285.3
2016-05-22T00:18:56.127Z,205454.7
2016-05-22T00:19:06.111Z,205454.7
2016-05-22T00:19:16.145Z,205454.7
2016-05-22T00:19:26.145Z,205454.7
2016-05-22T00:19:36.161Z,212204.2
2016-05-22T00:19:46.145Z,205454.7
2016-05-22T00:19:56.145Z,225900.3
2016-05-22T00:20:06.176Z,219148
2016-05-22T00:20:16.163Z,226672.1
2016-05-22T00:20:26.178Z,234583.8
2016-05-22T00:20:36.210Z,234583.8
2016-05-22T00:20:46.178Z,234583.8
2016-05-22T00:20:56.194Z,243076.7
2016-05-22T00:21:06.194Z,252344
2016-05-22T00:21:16.197Z,252344
2016-05-22T00:21:26.213Z,252344
2016-05-22T00:21:36.228Z,252344
2016-05-22T00:21:46.228Z,243076.7
2016-05-22T00:21:56.088Z,243076.7
2016-05-22T00:22:06.275Z,226672.1
2016-05-22T00:22:16.247Z,205454.7
2016-05-22T00:22:26.263Z,193502.6
2016-05-22T00:22:36.263Z,187913.7
2016-05-22T00:22:46.278Z,187913.7
2016-05-22T00:22:56.278Z,187913.7
2016-05-22T00:23:06.591Z,187913.7
2016-05-22T00:23:16.593Z,187913.7
2016-05-22T00:23:26.296Z,193502.6
2016-05-22T00:23:36.296Z,193502.6
2016-05-22T00:23:46.327Z,187913.7
2016-05-22T00:23:56.468Z,187913.7
2016-05-22T00:24:06.343Z,187913.7
2016-05-22T00:24:16.378Z,187913.7
2016-05-22T00:24:26.394Z,187913.7
2016-05-22T00:24:36.347Z,177702.8
2016-05-22T00:24:46.409Z,177702.8
2016-05-22T00:24:56.362Z,177702.8
2016-05-22T00:25:06.378Z,182518.8
2016-05-22T00:25:16.458Z,193502.6
2016-05-22T00:25:26.458Z,199285.3
2016-05-22T00:25:36.411Z,199285.3
2016-05-22T00:25:46.396Z,205454.7
2016-05-22T00:25:56.458Z,205454.7
2016-05-22T00:26:06.411Z,205454.7
2016-05-22T00:26:16.460Z,205454.7
2016-05-22T00:26:26.429Z,199285.3
2016-05-22T00:26:36.444Z,205454.7
2016-05-22T00:26:46.444Z,205454.7
2016-05-22T00:26:56.444Z,199285.3
2016-05-22T00:27:06.304Z,193502.6
2016-05-22T00:27:16.167Z,187913.7
2016-05-22T00:27:26.480Z,187913.7
2016-05-22T00:27:37.073Z,182518.8
2016-05-22T00:27:46.323Z,103285.6
2016-05-22T00:27:56.511Z,177702.8
2016-05-22T00:28:06.214Z,172887.6
2016-05-22T00:28:16.513Z,172887.6
2016-05-22T00:28:36.529Z,177702.8
2016-05-22T00:28:46.560Z,187913.7
2016-05-22T00:28:56.529Z,199285.3
2016-05-22T00:29:06.529Z,199285.3
2016-05-22T00:29:16.578Z,199285.3
2016-05-22T00:29:26.563Z,199285.3
2016-05-22T00:29:36.563Z,193502.6
2016-05-22T00:29:46.610Z,187913.7
2016-05-22T00:29:56.594Z,182518.8
2016-05-22T00:30:06.578Z,172887.6
2016-05-22T00:30:16.612Z,101558.6
2016-05-22T00:30:26.612Z,177702.8
2016-05-22T00:30:36.612Z,172887.6
2016-05-22T00:30:46.627Z,164030.3
2016-05-22T00:30:56.627Z,164030.3
2016-05-22T00:31:06.659Z,168266
2016-05-22T00:31:16.646Z,168266
2016-05-22T00:31:26.677Z,164030.3
2016-05-22T00:31:36.630Z,159987.8
2016-05-22T00:31:46.724Z,156138.5
2016-05-22T00:31:56.677Z,156138.5
2016-05-22T00:32:06.521Z,152289.8
2016-05-22T00:32:16.680Z,152289.8
2016-05-22T00:32:26.571Z,152289.8
2016-05-22T00:32:36.696Z,156138.5
2016-05-22T00:32:46.711Z,164030.3
2016-05-22T00:32:56.711Z,182518.8
2016-05-22T00:33:06.758Z,193502.6
2016-05-22T00:33:16.760Z,199285.3
2016-05-22T00:33:26.729Z,199285.3
2016-05-22T00:33:36.588Z,193502.6
2016-05-22T00:33:46.745Z,187913.7
2016-05-22T00:33:56.745Z,182518.8
2016-05-22T00:34:06.760Z,182518.8
2016-05-22T00:34:16.779Z,182518.8
2016-05-22T00:34:26.810Z,182518.8
2016-05-22T00:34:36.779Z,177702.8
2016-05-22T00:34:46.795Z,177702.8
2016-05-22T00:34:56.795Z,172887.6
2016-05-22T00:35:06.841Z,177702.8
2016-05-22T00:35:16.813Z,199285.3
2016-05-22T00:35:26.813Z,219148
2016-05-22T00:35:36.844Z,226672.1
2016-05-22T00:35:46.844Z,226672.1
2016-05-22T00:35:57.079Z,243076.7
2016-05-22T00:36:06.844Z,243076.7
2016-05-22T00:36:16.847Z,243076.7
2016-05-22T00:36:26.863Z,252344
2016-05-22T00:36:36.894Z,252344
2016-05-22T00:36:46.879Z,252344
2016-05-22T00:36:56.722Z,252344
2016-05-22T00:37:06.879Z,252344
2016-05-22T00:37:16.928Z,243076.7
2016-05-22T00:37:26.912Z,123447.7
2016-05-22T00:37:37.209Z,252344
2016-05-22T00:37:46.912Z,252344
2016-05-22T00:37:56.943Z,252344
2016-05-22T00:38:06.928Z,252344
2016-05-22T00:38:16.946Z,252344
2016-05-22T00:38:26.946Z,252344
2016-05-22T00:38:36.993Z,252344
2016-05-22T00:38:46.946Z,252344
2016-05-22T00:38:57.009Z,252344
2016-05-22T00:39:06.962Z,252344
2016-05-22T00:39:16.855Z,123447.7
2016-05-22T00:39:26.996Z,252344
2016-05-22T00:39:37.027Z,252344
2016-05-22T00:39:47.027Z,252344
2016-05-22T00:39:56.996Z,252344
2016-05-22T00:40:07.012Z,252344
2016-05-22T00:40:17.061Z,252344
2016-05-22T00:40:27.029Z,243076.7
2016-05-22T00:40:37.029Z,243076.7
2016-05-22T00:40:47.045Z,262000
2016-05-22T00:40:57.092Z,272624.2
2016-05-22T00:41:07.045Z,284024.6
2016-05-22T00:41:17.064Z,284024.6
2016-05-22T00:41:27.064Z,284024.6
2016-05-22T00:41:37.079Z,284024.6
2016-05-22T00:41:47.110Z,284024.6
2016-05-22T00:41:56.939Z,284024.6
2016-05-22T00:42:06.939Z,272624.2
2016-05-22T00:42:17.145Z,272624.2
2016-05-22T00:42:27.395Z,126329.9
2016-05-22T00:42:37.582Z,308961.3
2016-05-22T00:42:46.973Z,272624.2
2016-05-22T00:42:57.192Z,272624.2
2016-05-22T00:43:07.801Z,262000
2016-05-22T00:43:17.147Z,262000
2016-05-22T00:43:27.178Z,262000
2016-05-22T00:43:37.147Z,262000
2016-05-22T00:43:47.178Z,262000
2016-05-22T00:43:57.194Z,284024.6
2016-05-22T00:44:07.178Z,284024.6
2016-05-22T00:44:17.198Z,284024.6
2016-05-22T00:44:27.276Z,284024.6
2016-05-22T00:44:37.229Z,272624.2
2016-05-22T00:44:47.244Z,272624.2
2016-05-22T00:44:57.244Z,284024.6
2016-05-22T00:45:07.291Z,284024.6
2016-05-22T00:45:17.262Z,284024.6
2016-05-22T00:45:27.246Z,284024.6
2016-05-22T00:45:37.262Z,284024.6
2016-05-22T00:45:47.293Z,284024.6
2016-05-22T00:45:57.278Z,272624.2
2016-05-22T00:46:07.262Z,272624.2
2016-05-22T00:46:17.280Z,262000
2016-05-22T00:46:27.311Z,262000
2016-05-22T00:46:37.295Z,252344
2016-05-22T00:46:47.295Z,243076.7
2016-05-22T00:46:57.295Z,234583.8
2016-05-22T00:47:07.295Z,226672.1
2016-05-22T00:47:17.315Z,219148
2016-05-22T00:47:27.315Z,212204.2
2016-05-22T00:47:37.331Z,212204.2
2016-05-22T00:47:47.346Z,219148
2016-05-22T00:47:57.346Z,226672.1
2016-05-22T00:48:07.346Z,226672.1
2016-05-22T00:48:17.364Z,226672.1
2016-05-22T00:48:27.364Z,226672.1
2016-05-22T00:48:37.458Z,114611.6
2016-05-22T00:48:47.379Z,226672.1
2016-05-22T00:48:57.395Z,243076.7
2016-05-22T00:49:07.379Z,252344
2016-05-22T00:49:17.491Z,243076.7
2016-05-22T00:49:27.272Z,243076.7
2016-05-22T00:49:37.413Z,252344
2016-05-22T00:49:47.866Z,272624.2
2016-05-22T00:49:57.428Z,272624.2
2016-05-22T00:50:07.428Z,262000
2016-05-22T00:50:17.478Z,272624.2
2016-05-22T00:50:27.525Z,272624.2
2016-05-22T00:50:37.447Z,272624.2
2016-05-22T00:50:47.463Z,272624.2
2016-05-22T00:50:57.541Z,284024.6
2016-05-22T00:51:07.556Z,284024.6
2016-05-22T00:51:17.497Z,284024.6
2016-05-22T00:51:27.497Z,133633.7
2016-05-22T00:51:47.559Z,296394.4
2016-05-22T00:52:17.578Z,296394.4
2016-05-22T00:52:27.562Z,284024.6
2016-05-22T00:52:37.562Z,272624.2
2016-05-22T00:52:47.547Z,262000
2016-05-22T00:52:57.562Z,272624.2
2016-05-22T00:53:07.562Z,284024.6
2016-05-22T00:53:17.564Z,296394.4
2016-05-22T00:53:27.580Z,296394.4
2016-05-22T00:53:37.580Z,323659.4
2016-05-22T00:53:47.596Z,296394.4
2016-05-22T00:53:57.596Z,284024.6
2016-05-22T00:54:07.596Z,284024.6
2016-05-22T00:54:17.630Z,284024.6
2016-05-22T00:54:27.645Z,284024.6
2016-05-22T00:54:37.474Z,272624.2
2016-05-22T00:54:47.630Z,272624.2
2016-05-22T00:55:07.645Z,262000
2016-05-22T00:55:17.664Z,252344
2016-05-22T00:55:27.664Z,252344
2016-05-22T00:55:37.664Z,252344
2016-05-22T00:55:47.539Z,243076.7
2016-05-22T00:55:57.680Z,243076.7
2016-05-22T00:56:07.680Z,234583.8
2016-05-22T00:56:17.760Z,234583.8
2016-05-22T00:56:27.729Z,234583.8
2016-05-22T00:56:37.713Z,252344
2016-05-22T00:56:47.713Z,262000
2016-05-22T00:56:57.619Z,262000
2016-05-22T00:57:07.619Z,262000
2016-05-22T00:57:17.482Z,262000
2016-05-22T00:57:27.872Z,262000
2016-05-22T00:57:37.810Z,262000
2016-05-22T00:57:47.966Z,262000
2016-05-22T00:57:57.794Z,262000
2016-05-22T00:58:07.825Z,262000
2016-05-22T00:58:17.906Z,272624.2
2016-05-22T00:58:27.781Z,284024.6
2016-05-22T00:58:37.797Z,284024.6
2016-05-22T00:58:47.797Z,296394.4
2016-05-22T00:58:57.844Z,296394.4
2016-05-22T00:59:07.813Z,284024.6
2016-05-22T00:59:17.831Z,284024.6
2016-05-22T00:59:27.816Z,284024.6
2016-05-22T00:59:37.847Z,284024.6
2016-05-22T00:59:47.847Z,284024.6
2016-05-22T00:59:57.863Z,130942.5
2016-05-22T01:00:07.863Z,272624.2
2016-05-22T01:00:17.865Z,284024.6
2016-05-22T01:00:27.865Z,284024.6
2016-05-22T01:00:37.880Z,284024.6
2016-05-22T01:00:47.880Z,272624.2
2016-05-22T01:00:57.880Z,272624.2
2016-05-22T01:01:07.740Z,272624.2
2016-05-22T01:01:17.946Z,272624.2
2016-05-22T01:01:28.008Z,284024.6
2016-05-22T01:01:37.914Z,272624.2
2016-05-22T01:01:47.930Z,284024.6
2016-05-22T01:01:57.930Z,284024.6
2016-05-22T01:02:07.993Z,284024.6
2016-05-22T01:02:17.948Z,284024.6
2016-05-22T01:02:27.963Z,284024.6
2016-05-22T01:02:37.963Z,284024.6
2016-05-22T01:02:47.995Z,296394.4
2016-05-22T01:02:57.995Z,296394.4
2016-05-22T01:03:07.995Z,296394.4
2016-05-22T01:03:17.982Z,296394.4
2016-05-22T01:03:28.029Z,284024.6
2016-05-22T01:03:38.013Z,284024.6
2016-05-22T01:03:48.013Z,284024.6
2016-05-22T01:03:58.013Z,296394.4
2016-05-22T01:04:08.060Z,296394.4
2016-05-22T01:04:18.032Z,296394.4
2016-05-22T01:04:28.047Z,296394.4
2016-05-22T01:04:38.063Z,309928.3
2016-05-22T01:04:58.110Z,296394.4
2016-05-22T01:05:08.094Z,296394.4
2016-05-22T01:05:18.081Z,296394.4
2016-05-22T01:05:28.096Z,296394.4
2016-05-22T01:05:38.096Z,296394.4
2016-05-22T01:05:47.956Z,296394.4
2016-05-22T01:05:58.096Z,296394.4
2016-05-22T01:06:08.112Z,309928.3
2016-05-22T01:06:18.146Z,309928.3
2016-05-22T01:06:28.115Z,309928.3
2016-05-22T01:06:38.131Z,309928.3
2016-05-22T01:06:48.006Z,309928.3
2016-05-22T01:06:58.146Z,296394.4
2016-05-22T01:07:08.146Z,296394.4
2016-05-22T01:07:18.165Z,296394.4
2016-05-22T01:07:28.227Z,296394.4
2016-05-22T01:07:38.165Z,296394.4
2016-05-22T01:07:48.165Z,296394.4
2016-05-22T01:08:18.246Z,284024.6
2016-05-22T01:08:28.230Z,284024.6
2016-05-22T01:08:38.215Z,284024.6
2016-05-22T01:08:48.262Z,284024.6
2016-05-22T01:08:58.262Z,284024.6
2016-05-22T01:09:08.246Z,284024.6
2016-05-22T01:09:18.279Z,284024.6
2016-05-22T01:09:28.264Z,284024.6
2016-05-22T01:09:38.107Z,284024.6
2016-05-22T01:09:48.123Z,284024.6
2016-05-22T01:09:58.295Z,284024.6
2016-05-22T01:10:08.279Z,284024.6
2016-05-22T01:10:18.282Z,284024.6
2016-05-22T01:10:28.298Z,284024.6
2016-05-22T01:10:38.298Z,296394.4
2016-05-22T01:10:48.298Z,284024.6
2016-05-22T01:10:58.360Z,284024.6
2016-05-22T01:11:08.345Z,284024.6
2016-05-22T01:11:18.363Z,284024.6
2016-05-22T01:11:28.332Z,284024.6
2016-05-22T01:11:48.348Z,284024.6
2016-05-22T01:11:58.395Z,284024.6
2016-05-22T01:12:08.348Z,284024.6
2016-05-22T01:12:18.381Z,284024.6
2016-05-22T01:12:28.272Z,272624.2
2016-05-22T01:12:38.693Z,272624.2
2016-05-22T01:12:48.397Z,284024.6
2016-05-22T01:12:58.506Z,272624.2
2016-05-22T01:13:08.975Z,272624.2
2016-05-22T01:13:18.415Z,272624.2
2016-05-22T01:13:28.431Z,272624.2
2016-05-22T01:13:38.431Z,272624.2
2016-05-22T01:13:48.431Z,262000
2016-05-22T01:13:58.462Z,262000
2016-05-22T01:14:08.446Z,262000
2016-05-22T01:14:18.449Z,262000
2016-05-22T01:14:28.465Z,262000
2016-05-22T01:14:38.481Z,262000
2016-05-22T01:14:48.465Z,128443.9
2016-05-22T01:14:58.481Z,262000
2016-05-22T01:15:08.512Z,128443.9
2016-05-22T01:15:18.545Z,284024.6
2016-05-22T01:15:38.514Z,284024.6
2016-05-22T01:15:48.530Z,284024.6
2016-05-22T01:15:58.561Z,284024.6
2016-05-22T01:16:08.530Z,272624.2
2016-05-22T01:16:18.565Z,284024.6
2016-05-22T01:16:28.549Z,284024.6
2016-05-22T01:16:38.549Z,284024.6
2016-05-22T01:16:48.565Z,284024.6
2016-05-22T01:16:58.409Z,272624.2
2016-05-22T01:17:08.596Z,284024.6
2016-05-22T01:17:18.442Z,284024.6
2016-05-22T01:17:28.582Z,284024.6
2016-05-22T01:17:38.598Z,272624.2
2016-05-22T01:17:48.598Z,272624.2
2016-05-22T01:17:58.598Z,284024.6
2016-05-22T01:18:08.614Z,284024.6
2016-05-22T01:18:18.616Z,284024.6
2016-05-22T01:18:28.647Z,284024.6
2016-05-22T01:18:38.631Z,272624.2
2016-05-22T01:18:48.631Z,272624.2
2016-05-22T01:18:58.647Z,272624.2
2016-05-22T01:19:08.647Z,272624.2
2016-05-22T01:19:18.666Z,272624.2
2016-05-22T01:19:28.681Z,262000
2016-05-22T01:19:38.681Z,272624.2
2016-05-22T01:19:48.666Z,262000
2016-05-22T01:19:58.681Z,262000
2016-05-22T01:20:08.541Z,262000
2016-05-22T01:20:18.559Z,262000
2016-05-22T01:20:38.731Z,252344
2016-05-22T01:20:48.715Z,125945.6
2016-05-22T01:20:58.575Z,252344
2016-05-22T01:21:08.747Z,252344
2016-05-22T01:21:18.609Z,252344
2016-05-22T01:21:28.765Z,252344
2016-05-22T01:21:38.765Z,252344
2016-05-22T01:21:48.797Z,252344
2016-05-22T01:21:58.797Z,252344
2016-05-22T01:22:08.781Z,252344
2016-05-22T01:22:18.643Z,252344
2016-05-22T01:22:28.909Z,243076.7
2016-05-22T01:22:38.800Z,243076.7
2016-05-22T01:22:48.815Z,243076.7
2016-05-22T01:22:58.815Z,234583.8
2016-05-22T01:23:08.831Z,234583.8
2016-05-22T01:23:18.833Z,234583.8
2016-05-22T01:23:28.848Z,234583.8
2016-05-22T01:23:38.848Z,234583.8
2016-05-22T01:23:48.880Z,226672.1
2016-05-22T01:23:59.145Z,116724.3
2016-05-22T01:24:08.895Z,226672.1
2016-05-22T01:24:28.883Z,234583.8
2016-05-22T01:24:38.883Z,234583.8
2016-05-22T01:24:48.914Z,121142.3
2016-05-22T01:24:58.914Z,243076.7
2016-05-22T01:25:08.914Z,243076.7
2016-05-22T01:25:18.916Z,243076.7
2016-05-22T01:25:28.947Z,243076.7
2016-05-22T01:25:38.932Z,243076.7
2016-05-22T01:25:48.932Z,234583.8
2016-05-22T01:25:59.072Z,234583.8
2016-05-22T01:26:08.947Z,234583.8
2016-05-22T01:26:18.981Z,234583.8
2016-05-22T01:26:28.966Z,243076.7
2016-05-22T01:26:39.028Z,252344
2016-05-22T01:26:49.013Z,252344
2016-05-22T01:26:58.997Z,252344
2016-05-22T01:27:08.981Z,252344
2016-05-22T01:27:18.906Z,252344
2016-05-22T01:27:29.500Z,252344
2016-05-22T01:27:39.078Z,252344
2016-05-22T01:27:49.203Z,243076.7
2016-05-22T01:27:59.078Z,243076.7
2016-05-22T01:28:08.891Z,234583.8
2016-05-22T01:28:18.971Z,251571.6
2016-05-22T01:28:29.049Z,234583.8
2016-05-22T01:28:39.127Z,226672.1
2016-05-22T01:28:49.065Z,226672.1
2016-05-22T01:28:59.111Z,219148
2016-05-22T01:29:09.080Z,219148
2016-05-22T01:29:19.083Z,219148
2016-05-22T01:29:29.083Z,219148
2016-05-22T01:29:39.130Z,116724.3
2016-05-22T01:29:49.114Z,234583.8
2016-05-22T01:29:59.130Z,121142.3
2016-05-22T01:30:09.114Z,234583.8
2016-05-22T01:30:19.132Z,234583.8
2016-05-22T01:30:29.445Z,226672.1
2016-05-22T01:30:39.148Z,234583.8
2016-05-22T01:30:49.148Z,121142.3
2016-05-22T01:30:59.148Z,123447.7
2016-05-22T01:31:09.148Z,123447.7
2016-05-22T01:31:19.166Z,243076.7
2016-05-22T01:31:29.182Z,252344
2016-05-22T01:31:39.213Z,262000
2016-05-22T01:31:49.182Z,252344
2016-05-22T01:31:59.198Z,252344
2016-05-22T01:32:09.198Z,243076.7
2016-05-22T01:32:19.201Z,234583.8
2016-05-22T01:32:29.232Z,234583.8
2016-05-22T01:32:39.216Z,234583.8
2016-05-22T01:32:49.232Z,234583.8
2016-05-22T01:32:59.076Z,252344
2016-05-22T01:33:09.263Z,262000
2016-05-22T01:33:19.094Z,262000
2016-05-22T01:33:29.282Z,262000
2016-05-22T01:33:39.266Z,262000
2016-05-22T01:33:49.297Z,252344
2016-05-22T01:33:59.360Z,252344
2016-05-22T01:34:09.016Z,243076.7
2016-05-22T01:34:19.284Z,243076.7
2016-05-22T01:34:29.299Z,234583.8
2016-05-22T01:34:39.315Z,219148
2016-05-22T01:34:49.315Z,219148
2016-05-22T01:34:59.346Z,219148
2016-05-22T01:35:09.362Z,226672.1
2016-05-22T01:35:19.349Z,234583.8
2016-05-22T01:35:29.349Z,243076.7
2016-05-22T01:35:39.365Z,252344
2016-05-22T01:35:49.365Z,252344
2016-05-22T01:35:59.365Z,252344
2016-05-22T01:36:09.365Z,252344
2016-05-22T01:36:19.399Z,243076.7
2016-05-22T01:36:29.399Z,123447.7
2016-05-22T01:36:39.399Z,123447.7
2016-05-22T01:36:49.415Z,243076.7
2016-05-22T01:36:59.399Z,121142.3
2016-05-22T01:37:09.415Z,243076.7
2016-05-22T01:37:29.433Z,243076.7
2016-05-22T01:37:39.730Z,243076.7
2016-05-22T01:37:49.465Z,243076.7
2016-05-22T01:37:59.449Z,243076.7
2016-05-22T01:38:09.465Z,243076.7
2016-05-22T01:38:19.545Z,243076.7
2016-05-22T01:38:29.482Z,243076.7
2016-05-22T01:38:39.467Z,252344
2016-05-22T01:38:49.482Z,252344
2016-05-22T01:38:59.357Z,252344
2016-05-22T01:39:09.482Z,252344
2016-05-22T01:39:19.813Z,252344
2016-05-22T01:39:29.516Z,252344
2016-05-22T01:39:39.532Z,252344
2016-05-22T01:39:49.516Z,252344
2016-05-22T01:39:59.579Z,252344
2016-05-22T01:40:09.532Z,252344
2016-05-22T01:40:19.628Z,252344
2016-05-22T01:40:29.550Z,252344
2016-05-22T01:40:39.565Z,252344
2016-05-22T01:40:49.581Z,252344
2016-05-22T01:40:59.628Z,252344
2016-05-22T01:41:09.597Z,252344
2016-05-22T01:41:19.585Z,243076.7
2016-05-22T01:41:29.601Z,243076.7
2016-05-22T01:41:39.616Z,243076.7
2016-05-22T01:41:49.647Z,243076.7
2016-05-22T01:41:59.632Z,243076.7
2016-05-22T01:42:09.632Z,243076.7
2016-05-22T01:42:20.149Z,243076.7
2016-05-22T01:42:29.868Z,234583.8
2016-05-22T01:42:40.149Z,118837
2016-05-22T01:42:49.931Z,234583.8
2016-05-22T01:42:59.665Z,226672.1
2016-05-22T01:43:09.696Z,116724.3
2016-05-22T01:43:19.668Z,226672.1
2016-05-22T01:43:29.684Z,226672.1
2016-05-22T01:43:39.731Z,226672.1
2016-05-22T01:43:49.699Z,219148
2016-05-22T01:43:59.699Z,219148
2016-05-22T01:44:09.715Z,219148
2016-05-22T01:44:19.717Z,226672.1
2016-05-22T01:44:29.717Z,226672.1
2016-05-22T01:44:39.717Z,226672.1
2016-05-22T01:44:49.733Z,219148
2016-05-22T01:44:59.748Z,219148
2016-05-22T01:45:09.733Z,219148
2016-05-22T01:45:19.751Z,219148
2016-05-22T01:45:29.876Z,219148
2016-05-22T01:45:39.673Z,212204.2
2016-05-22T01:45:49.767Z,219148
2016-05-22T01:45:59.782Z,226672.1
2016-05-22T01:46:09.782Z,234583.8
2016-05-22T01:46:19.692Z,234583.8
2016-05-22T01:46:29.817Z,243076.7
2016-05-22T01:46:39.801Z,243076.7
2016-05-22T01:46:49.817Z,252344
2016-05-22T01:46:59.848Z,252344
2016-05-22T01:47:09.832Z,252344
2016-05-22T01:47:19.835Z,252344
2016-05-22T01:47:29.851Z,252344
2016-05-22T01:47:39.695Z,252344
2016-05-22T01:47:49.851Z,252344
2016-05-22T01:47:59.867Z,125945.6
2016-05-22T01:48:09.710Z,252344
2016-05-22T01:48:19.884Z,252344
2016-05-22T01:48:29.915Z,252344
2016-05-22T01:48:39.900Z,252344
2016-05-22T01:48:49.900Z,252344
2016-05-22T01:48:59.931Z,252344
2016-05-22T01:49:09.947Z,243076.7
2016-05-22T01:49:19.778Z,252344
2016-05-22T01:49:29.918Z,262000
2016-05-22T01:49:39.981Z,262000
2016-05-22T01:49:49.950Z,262000
2016-05-22T01:49:59.950Z,262000
2016-05-22T01:50:09.950Z,262000
2016-05-22T01:50:20.000Z,252344
2016-05-22T01:50:30.015Z,262000
2016-05-22T01:50:39.828Z,125945.6
2016-05-22T01:50:50.015Z,252344
2016-05-22T01:51:00.000Z,252344
2016-05-22T01:51:09.984Z,252344
2016-05-22T01:51:20.017Z,252344
2016-05-22T01:51:30.017Z,252344
2016-05-22T01:51:40.017Z,252344
2016-05-22T01:51:49.877Z,262000
2016-05-22T01:52:00.033Z,262000
2016-05-22T01:52:10.033Z,262000
2016-05-22T01:52:20.036Z,262000
2016-05-22T01:52:30.051Z,121142.3
2016-05-22T01:52:40.051Z,234583.8
2016-05-22T01:52:50.067Z,226672.1
2016-05-22T01:53:00.083Z,226672.1
2016-05-22T01:53:10.067Z,219148
2016-05-22T01:53:20.085Z,205454.7
2016-05-22T01:53:30.100Z,199285.3
2016-05-22T01:53:40.100Z,193502.6
2016-05-22T01:53:50.132Z,182518.8
2016-05-22T01:54:00.007Z,182518.8
2016-05-22T01:54:10.116Z,182518.8
2016-05-22T01:54:20.151Z,182518.8
2016-05-22T01:54:30.151Z,187913.7
2016-05-22T01:54:40.136Z,193502.6
2016-05-22T01:54:50.151Z,193502.6
2016-05-22T01:55:00.167Z,212204.2
2016-05-22T01:55:10.167Z,212204.2
2016-05-22T01:55:20.184Z,219148
2016-05-22T01:55:30.169Z,226672.1
2016-05-22T01:55:40.216Z,226672.1
2016-05-22T01:55:50.231Z,226672.1
2016-05-22T01:56:00.200Z,219148
2016-05-22T01:56:10.184Z,219148
2016-05-22T01:56:20.219Z,226672.1
2016-05-22T01:56:30.219Z,226672.1
2016-05-22T01:56:40.219Z,226672.1
2016-05-22T01:56:50.234Z,226672.1
2016-05-22T01:57:00.234Z,219148
2016-05-22T01:57:10.250Z,219148
2016-05-22T01:57:20.111Z,121142.3
2016-05-22T01:57:30.111Z,118837
2016-05-22T01:57:40.689Z,226672.1
2016-05-22T01:57:50.361Z,116724.3
2016-05-22T01:58:00.346Z,226672.1
2016-05-22T01:58:10.768Z,234583.8
2016-05-22T01:58:20.302Z,243076.7
2016-05-22T01:58:30.317Z,252344
2016-05-22T01:58:40.302Z,252344
2016-05-22T01:58:50.317Z,252344
2016-05-22T01:59:00.349Z,252344
2016-05-22T01:59:10.333Z,243076.7
2016-05-22T01:59:20.336Z,243076.7
2016-05-22T01:59:30.352Z,234583.8
2016-05-22T01:59:40.352Z,234583.8
2016-05-22T01:59:50.367Z,121142.3
2016-05-22T02:00:10.367Z,243076.7
2016-05-22T02:00:20.370Z,243076.7
2016-05-22T02:00:40.402Z,243076.7
2016-05-22T02:00:50.402Z,252344
2016-05-22T02:01:00.261Z,252344
2016-05-22T02:01:10.417Z,252344
2016-05-22T02:01:20.419Z,252344
2016-05-22T02:01:30.497Z,252344
2016-05-22T02:01:40.419Z,252344
2016-05-22T02:01:50.450Z,262000